This is the latest recevied weather packets stored in our database for station/object IZ3VCM. If no packets are shown the sender has not sent any weather packets the latest 10 day(s).
| Time | Temp. | Humidity | Pressure | Rain* | Wind** | Luminosity | Snow |
|---|---|---|---|---|---|---|---|
| 1777536005 | 14.44° C | 61% | 1024.2 hPa | 0.51 mm | - | - | - |
| 1777535103 | 13.33° C | 62% | 1024.3 hPa | 0 mm | - | - | - |
| 1777534206 | 13.33° C | 67% | 1024.3 hPa | 0 mm | - | - | - |
| 1777533303 | 12.78° C | 69% | 1024.1 hPa | 0 mm | - | - | - |
| 1777532405 | 12.22° C | 68% | 1024 hPa | 0 mm | - | - | - |
| 1777531504 | 12.78° C | 67% | 1023.9 hPa | 0 mm | - | - | - |
| 1777530606 | 13.33° C | 66% | 1023.9 hPa | 0 mm | - | - | - |
| 1777500904 | 12.22° C | 85% | 1020.1 hPa | 0.51 mm | - | - | - |
| 1777500007 | 12.22° C | 85% | 1020 hPa | 0.51 mm | - | - | - |
| 1777499104 | 12.22° C | 84% | 1019.8 hPa | 0.51 mm | - | - | - |
| 1777498206 | 12.78° C | 83% | 1019.7 hPa | 0 mm | - | - | - |
| 1777497304 | 13.33° C | 81% | 1019.6 hPa | 0 mm | - | - | - |
| 1777496406 | 13.33° C | 82% | 1019.5 hPa | 0 mm | - | - | - |
| 1777495504 | 13.33° C | 81% | 1019.4 hPa | 0 mm | - | - | - |
| 1777494607 | 13.33° C | 81% | 1019.2 hPa | 0 mm | - | - | - |
| 1777493704 | 13.89° C | 79% | 1018.9 hPa | 0 mm | - | - | - |
| 1777492806 | 13.89° C | 77% | 1018.7 hPa | 0 mm | - | - | - |
| 1777491905 | 14.44° C | 75% | 1018.5 hPa | 0 mm | - | - | - |
| 1777491006 | 15° C | 74% | 1018.3 hPa | 0 mm | - | - | - |
| 1777490104 | 15.56° C | 70% | 1018.1 hPa | 0 mm | - | - | - |
| 1777489206 | 16.11° C | 66% | 1017.9 hPa | 0 mm | - | - | - |
| 1777488304 | 16.67° C | 65% | 1017.5 hPa | 0 mm | - | - | - |
| 1777487407 | 16.67° C | 63% | 1017.1 hPa | 0 mm | - | - | - |
| 1777486504 | 16.67° C | 63% | 1017 hPa | 0 mm | - | - | - |
| 1777485607 | 17.22° C | 62% | 1016.8 hPa | 0 mm | - | - | - |
* Rain latest hour (hover to see other rain measurements)
** Current wind speed in m/s (hover to see current wind gust speed)